createdAt,value
2022-12-04T00:01:44.183Z,1000.2
2022-12-04T00:04:12.497Z,1000.3
2022-12-04T00:06:40.690Z,1000.3
2022-12-04T00:09:08.906Z,1000.2
2022-12-04T00:12:14.290Z,1000.1
2022-12-04T00:15:16.327Z,1000.2
2022-12-04T00:17:11.776Z,1000.1
2022-12-04T00:20:16.048Z,1000.1
2022-12-04T00:22:44.332Z,1000.1
2022-12-04T00:25:12.519Z,1000.1
2022-12-04T00:27:40.797Z,1000.1
2022-12-04T00:30:08.978Z,999.9
2022-12-04T00:33:14.352Z,999.9
2022-12-04T00:35:42.576Z,1000
2022-12-04T00:38:10.819Z,999.9
2022-12-04T00:41:16.130Z,999.9
2022-12-04T00:43:44.396Z,999.9
2022-12-04T00:46:12.641Z,999.9
2022-12-04T00:49:09.764Z,999.8
2022-12-04T00:52:15.098Z,999.8
2022-12-04T00:54:43.307Z,999.8
2022-12-04T00:57:11.549Z,999.8
2022-12-04T00:59:39.782Z,999.8
2022-12-04T01:02:08.071Z,999.7
2022-12-04T01:05:13.331Z,999.7
2022-12-04T01:07:41.652Z,999.8
2022-12-04T01:10:09.838Z,999.8
2022-12-04T01:13:15.156Z,999.8
2022-12-04T01:15:43.413Z,999.8
2022-12-04T01:18:12.678Z,999.9
2022-12-04T01:20:39.911Z,999.9
2022-12-04T01:23:08.139Z,999.8
2022-12-04T01:26:13.451Z,1000
2022-12-04T01:28:41.685Z,1000
2022-12-04T01:31:10.085Z,1000
2022-12-04T01:34:15.294Z,1000
2022-12-04T01:36:43.532Z,1000
2022-12-04T01:39:11.784Z,1000.1
2022-12-04T01:41:40.024Z,1000.2
2022-12-04T01:44:08.277Z,1000
2022-12-04T01:47:13.565Z,1000
2022-12-04T01:49:33.616Z,1000
2022-12-04T01:52:01.858Z,1000
2022-12-04T01:55:07.153Z,1000
2022-12-04T01:58:12.473Z,1000
2022-12-04T02:00:40.765Z,1000
2022-12-04T02:03:09.041Z,1000
2022-12-04T02:06:14.301Z,1000
2022-12-04T02:08:42.544Z,1000
2022-12-04T02:11:10.785Z,1000
2022-12-04T02:14:16.071Z,1000
2022-12-04T02:16:44.408Z,1000
2022-12-04T02:19:12.623Z,1000
2022-12-04T02:21:40.835Z,1000
2022-12-04T02:24:09.102Z,999.8
2022-12-04T02:27:14.352Z,999.9
2022-12-04T02:29:42.662Z,999.8
2022-12-04T02:32:10.900Z,999.9
2022-12-04T02:35:16.181Z,999.9
2022-12-04T02:37:44.448Z,999.9
2022-12-04T02:40:12.710Z,999.9
2022-12-04T02:42:40.934Z,999.9
2022-12-04T02:45:09.215Z,999.7
2022-12-04T02:48:14.486Z,999.9
2022-12-04T02:51:19.788Z,999.9
2022-12-04T02:53:39.876Z,999.8
2022-12-04T02:56:08.115Z,999.8
2022-12-04T02:59:13.412Z,999.7
2022-12-04T03:01:41.787Z,999.7
2022-12-04T03:04:09.926Z,999.7
2022-12-04T03:07:15.273Z,999.8
2022-12-04T03:09:43.427Z,999.8
2022-12-04T03:12:11.743Z,999.8
2022-12-04T03:14:39.959Z,999.8
2022-12-04T03:17:08.273Z,999.8
2022-12-04T03:20:13.535Z,999.8
2022-12-04T03:22:41.765Z,999.8
2022-12-04T03:25:10.032Z,999.8
2022-12-04T03:28:15.353Z,999.7
2022-12-04T03:30:43.620Z,999.8
2022-12-04T03:33:11.822Z,999.7
2022-12-04T03:35:40.088Z,999.7
2022-12-04T03:38:08.343Z,999.6
2022-12-04T03:41:13.606Z,999.6
2022-12-04T03:43:41.915Z,999.7
2022-12-04T03:46:10.243Z,999.7
2022-12-04T03:49:07.224Z,999.7
2022-12-04T03:52:12.560Z,999.6
2022-12-04T03:54:40.790Z,999.6
2022-12-04T03:57:09.059Z,999.4
2022-12-04T04:00:14.346Z,999.5
2022-12-04T04:02:42.680Z,999.5
2022-12-04T04:05:10.843Z,999.5
2022-12-04T04:08:16.183Z,999.5
2022-12-04T04:10:44.421Z,999.5
2022-12-04T04:13:12.624Z,999.5
2022-12-04T04:15:40.890Z,999.5
2022-12-04T04:18:09.151Z,999.3
2022-12-04T04:21:14.461Z,999.4
2022-12-04T04:23:42.681Z,999.4
2022-12-04T04:26:10.930Z,999.3
2022-12-04T04:28:39.169Z,999.3
2022-12-04T04:31:07.531Z,999.3
2022-12-04T04:34:12.729Z,999.4
2022-12-04T04:36:40.983Z,999.4
2022-12-04T04:39:09.284Z,999.3
2022-12-04T04:42:14.568Z,999.4
2022-12-04T04:44:42.795Z,999.5
2022-12-04T04:47:11.027Z,999.6
2022-12-04T04:50:16.348Z,999.5
2022-12-04T04:52:36.410Z,999.6
2022-12-04T04:55:04.631Z,999.5
2022-12-04T04:58:09.989Z,999.6
2022-12-04T05:01:15.340Z,999.6
2022-12-04T05:03:43.534Z,999.6
2022-12-04T05:06:11.796Z,999.6
2022-12-04T05:08:40.018Z,999.7
2022-12-04T05:11:08.264Z,999.6
2022-12-04T05:14:13.569Z,999.7
2022-12-04T05:16:41.926Z,999.7
2022-12-04T05:19:10.048Z,999.6
2022-12-04T05:22:15.360Z,999.6
2022-12-04T05:24:43.647Z,999.6
2022-12-04T05:27:11.877Z,999.6
2022-12-04T05:29:40.102Z,999.6
2022-12-04T05:32:08.400Z,999.6
2022-12-04T05:35:13.674Z,999.6
2022-12-04T05:37:41.920Z,999.7
2022-12-04T05:40:10.217Z,999.7
2022-12-04T05:43:15.470Z,999.7
2022-12-04T05:45:43.753Z,999.7
2022-12-04T05:48:12.015Z,999.7
2022-12-04T05:51:09.108Z,999.7
2022-12-04T05:54:14.398Z,999.8
2022-12-04T05:56:42.695Z,999.8
2022-12-04T05:59:10.899Z,999.7
2022-12-04T06:02:16.304Z,999.8
2022-12-04T06:04:44.445Z,999.7
2022-12-04T06:07:12.715Z,999.6
2022-12-04T06:09:40.973Z,999.7
2022-12-04T06:12:09.173Z,999.6
2022-12-04T06:15:14.535Z,999.7
2022-12-04T06:17:42.778Z,999.7
2022-12-04T06:20:11.590Z,999.7
2022-12-04T06:22:39.301Z,999.6
2022-12-04T06:25:07.464Z,999.6
2022-12-04T06:28:12.814Z,999.6
2022-12-04T06:30:41.076Z,999.6
2022-12-04T06:33:09.274Z,999.5
2022-12-04T06:36:14.590Z,999.6
2022-12-04T06:38:42.874Z,999.6
2022-12-04T06:41:11.095Z,999.6
2022-12-04T06:44:16.423Z,999.7
2022-12-04T06:46:47.018Z,999.7
2022-12-04T06:49:12.890Z,999.7
2022-12-04T06:51:32.953Z,999.6
2022-12-04T06:54:01.234Z,999.6
2022-12-04T06:57:06.522Z,999.6
2022-12-04T07:00:11.822Z,999.6
2022-12-04T07:02:40.140Z,999.6
2022-12-04T07:05:08.322Z,999.7
2022-12-04T07:08:13.712Z,999.6
2022-12-04T07:10:41.878Z,999.7
2022-12-04T07:13:10.126Z,999.6
2022-12-04T07:16:15.502Z,999.7
2022-12-04T07:18:43.714Z,999.7
2022-12-04T07:21:11.951Z,999.6
2022-12-04T07:23:40.191Z,1000.7
2022-12-04T07:26:45.485Z,999.7
2022-12-04T07:29:13.748Z,999.7
2022-12-04T07:31:42.055Z,999.7
2022-12-04T07:34:10.242Z,999.7
2022-12-04T07:37:15.537Z,999.7
2022-12-04T07:39:43.768Z,999.7
2022-12-04T07:42:12.036Z,999.7
2022-12-04T07:44:40.294Z,999.6
2022-12-04T07:47:45.584Z,999.8
2022-12-04T07:50:13.844Z,999.7
2022-12-04T07:52:33.871Z,999.7
2022-12-04T07:55:02.146Z,999.6
2022-12-04T07:58:07.420Z,999.6
2022-12-04T08:01:12.883Z,999.6
2022-12-04T08:03:45.429Z,999.6
2022-12-04T08:06:09.260Z,999.6
2022-12-04T08:09:14.562Z,999.7
2022-12-04T08:11:42.795Z,999.6
2022-12-04T08:14:11.035Z,999.6
2022-12-04T08:17:16.415Z,999.6
2022-12-04T08:19:44.632Z,999.6
2022-12-04T08:22:12.840Z,999.6
2022-12-04T08:24:41.113Z,999.6
2022-12-04T08:27:09.339Z,999.4
2022-12-04T08:30:14.672Z,999.6
2022-12-04T08:32:42.907Z,999.5
2022-12-04T08:35:11.161Z,999.6
2022-12-04T08:38:16.474Z,999.7
2022-12-04T08:40:44.768Z,999.7
2022-12-04T08:43:12.974Z,999.7
2022-12-04T08:45:41.196Z,999.8
2022-12-04T08:48:46.502Z,999.5
2022-12-04T08:51:14.783Z,999.5
2022-12-04T08:53:34.787Z,999.5
2022-12-04T08:56:03.030Z,999.6
2022-12-04T08:59:08.392Z,999.6
2022-12-04T09:02:13.669Z,999.7
2022-12-04T09:04:41.990Z,999.7
2022-12-04T09:07:10.198Z,999.7
2022-12-04T09:10:15.527Z,999.7
2022-12-04T09:12:43.797Z,999.7
2022-12-04T09:15:12.001Z,999.6
2022-12-04T09:17:40.241Z,999.6
2022-12-04T09:20:45.559Z,999.5
2022-12-04T09:23:13.778Z,999.6
2022-12-04T09:25:42.017Z,999.6
2022-12-04T09:28:10.244Z,999.7
2022-12-04T09:31:15.611Z,999.7
2022-12-04T09:33:43.833Z,999.7
2022-12-04T09:36:12.113Z,999.8
2022-12-04T09:38:40.361Z,999.8
2022-12-04T09:41:08.585Z,999.8
2022-12-04T09:44:13.928Z,999.8
2022-12-04T09:46:42.611Z,999.8
2022-12-04T09:49:10.393Z,999.9
2022-12-04T09:51:38.624Z,999.9
2022-12-04T09:53:58.705Z,999.8
2022-12-04T09:57:03.996Z,999.8
2022-12-04T10:00:09.303Z,999.6
2022-12-04T10:03:14.695Z,999.8
2022-12-04T10:05:42.889Z,999.8
2022-12-04T10:08:11.142Z,999.7
2022-12-04T10:10:39.376Z,999.7
2022-12-04T10:13:07.613Z,999.6
2022-12-04T10:16:12.973Z,999.5
2022-12-04T10:18:41.149Z,999.5
2022-12-04T10:21:09.449Z,999.5
2022-12-04T10:24:14.704Z,999.5
2022-12-04T10:26:42.996Z,999.4
2022-12-04T10:29:11.207Z,999.3
2022-12-04T10:32:16.535Z,999.2
2022-12-04T10:34:45.836Z,999.2
2022-12-04T10:37:13.019Z,999.1
2022-12-04T10:39:41.255Z,999.5
2022-12-04T10:42:09.512Z,999.1
2022-12-04T10:45:51.890Z,999.2
2022-12-04T10:48:57.243Z,999.2
2022-12-04T10:53:16.641Z,999.1
2022-12-04T10:55:36.678Z,999.1
2022-12-04T10:58:04.909Z,999.1
2022-12-04T11:01:10.221Z,999.1
2022-12-04T11:04:15.552Z,999
2022-12-04T11:06:43.778Z,999
2022-12-04T11:09:12.036Z,999
2022-12-04T11:11:40.255Z,999.2
2022-12-04T11:14:47.099Z,998.9
2022-12-04T11:17:13.810Z,998.9
2022-12-04T11:19:42.088Z,998.9
2022-12-04T11:22:10.310Z,999
2022-12-04T11:25:15.650Z,999
2022-12-04T11:27:43.910Z,999
2022-12-04T11:30:12.229Z,999
2022-12-04T11:32:40.382Z,999
2022-12-04T11:35:08.624Z,999.1
2022-12-04T11:38:13.968Z,999
2022-12-04T11:40:42.194Z,999
2022-12-04T11:43:10.415Z,999.1
2022-12-04T11:46:15.730Z,999.1
2022-12-04T11:48:43.974Z,999.1
2022-12-04T11:51:12.272Z,999.1
2022-12-04T11:53:32.264Z,999.2
2022-12-04T11:56:00.536Z,999.2
2022-12-04T11:59:05.845Z,999.1
2022-12-04T12:02:11.250Z,999.2
2022-12-04T12:05:16.467Z,999.2
2022-12-04T12:07:44.794Z,999.2
2022-12-04T12:10:12.993Z,999.2
2022-12-04T12:12:41.245Z,998.9
2022-12-04T12:15:46.533Z,999.1
2022-12-04T12:18:15.433Z,999.1
2022-12-04T12:20:43.064Z,999.1
2022-12-04T12:23:11.268Z,999
2022-12-04T12:26:16.572Z,999
2022-12-04T12:28:44.815Z,999
2022-12-04T12:31:13.032Z,999
2022-12-04T12:33:41.334Z,999
2022-12-04T12:36:09.575Z,999
2022-12-04T12:39:51.920Z,999
2022-12-04T12:42:58.367Z,999
2022-12-04T12:46:02.616Z,999
2022-12-04T12:49:07.885Z,999
2022-12-04T12:52:13.172Z,998.9
2022-12-04T12:54:33.218Z,999
2022-12-04T12:57:01.495Z,999
2022-12-04T13:00:06.784Z,998.9
2022-12-04T13:03:12.078Z,998.8
2022-12-04T13:05:40.364Z,998.8
2022-12-04T13:08:08.625Z,998.7
2022-12-04T13:11:13.897Z,998.6
2022-12-04T13:13:42.185Z,998.5
2022-12-04T13:16:10.513Z,998.5
2022-12-04T13:19:15.746Z,998.5
2022-12-04T13:21:43.954Z,998.5
2022-12-04T13:24:12.200Z,998.4
2022-12-04T13:26:42.590Z,998.4
2022-12-04T13:29:08.703Z,998.3
2022-12-04T13:32:14.065Z,998.3
2022-12-04T13:34:42.276Z,998.3
2022-12-04T13:37:10.517Z,998.2
2022-12-04T13:40:15.811Z,998.2
2022-12-04T13:42:44.051Z,998.3
2022-12-04T13:45:12.309Z,998.4
2022-12-04T13:47:40.556Z,998.4
2022-12-04T13:50:08.808Z,998.5
2022-12-04T13:53:05.944Z,998.4
2022-12-04T13:56:14.905Z,998.4
2022-12-04T13:58:39.500Z,998.4
2022-12-04T14:01:07.737Z,998.3
2022-12-04T14:04:13.052Z,998.3
2022-12-04T14:06:41.260Z,999
2022-12-04T14:09:09.489Z,998.4
2022-12-04T14:12:51.939Z,998.3
2022-12-04T14:15:57.213Z,998.3
2022-12-04T14:19:02.508Z,998.4
2022-12-04T14:22:07.854Z,998.3
2022-12-04T14:25:13.146Z,998.3
2022-12-04T14:27:41.355Z,998.2
2022-12-04T14:30:09.653Z,998.2
2022-12-04T14:33:14.955Z,998.2
2022-12-04T14:36:57.315Z,998.4
2022-12-04T14:40:02.595Z,998.5
2022-12-04T14:43:08.991Z,998.6
2022-12-04T14:45:36.156Z,998.6
2022-12-04T14:48:04.412Z,998.7
2022-12-04T14:51:09.700Z,998.7
2022-12-04T14:54:06.882Z,998.8
2022-12-04T14:57:12.204Z,998.8
2022-12-04T14:59:40.371Z,998.8
2022-12-04T15:02:08.666Z,998.8
2022-12-04T15:05:13.973Z,998.7
2022-12-04T15:07:42.245Z,998.7
2022-12-04T15:10:10.445Z,998.7
2022-12-04T15:13:18.550Z,998.7
2022-12-04T15:15:44.104Z,998.7
2022-12-04T15:18:12.268Z,998.7
2022-12-04T15:20:40.492Z,998.7
2022-12-04T15:23:08.745Z,998.6
2022-12-04T15:26:14.079Z,998.6
2022-12-04T15:28:42.296Z,998.5
2022-12-04T15:31:10.579Z,998.5
2022-12-04T15:34:15.874Z,998.5
2022-12-04T15:36:44.148Z,998.5
2022-12-04T15:39:12.342Z,998.5
2022-12-04T15:41:40.579Z,998.5
2022-12-04T15:44:08.836Z,998.5
2022-12-04T15:47:14.242Z,998.5
2022-12-04T15:49:42.440Z,998.5
2022-12-04T15:52:10.714Z,998.6
2022-12-04T15:55:15.983Z,998.5
2022-12-04T15:57:44.227Z,998.5
2022-12-04T16:00:12.516Z,998.6
2022-12-04T16:02:40.718Z,998.6
2022-12-04T16:05:00.874Z,998.7
2022-12-04T16:08:06.132Z,998.6
2022-12-04T16:11:11.375Z,998.6
2022-12-04T16:13:39.621Z,998.6
2022-12-04T16:16:07.940Z,998.6
2022-12-04T16:19:13.225Z,998.5
2022-12-04T16:21:41.443Z,998.6
2022-12-04T16:24:09.679Z,998.6
2022-12-04T16:27:15.036Z,998.6
2022-12-04T16:29:43.284Z,998.7
2022-12-04T16:32:11.536Z,998.7
2022-12-04T16:35:16.826Z,998.8
2022-12-04T16:37:45.067Z,998.8
2022-12-04T16:40:13.274Z,998.8
2022-12-04T16:42:41.536Z,998.9
2022-12-04T16:45:09.765Z,998.9
2022-12-04T16:48:15.081Z,998.8
2022-12-04T16:50:43.361Z,998.8
2022-12-04T16:53:11.587Z,998.8
2022-12-04T16:56:53.962Z,998.8
2022-12-04T16:59:59.425Z,998.7
2022-12-04T17:03:04.586Z,998.7
2022-12-04T17:06:01.757Z,998.7
2022-12-04T17:09:07.001Z,998.6
2022-12-04T17:12:12.330Z,998.6
2022-12-04T17:14:40.568Z,998.5
2022-12-04T17:17:08.823Z,998.5
2022-12-04T17:20:14.132Z,998.5
2022-12-04T17:22:42.330Z,998.5
2022-12-04T17:25:10.625Z,998.5
2022-12-04T17:28:15.959Z,998.4
2022-12-04T17:30:44.250Z,998.4
2022-12-04T17:33:12.397Z,998.3
2022-12-04T17:35:40.653Z,998.3
2022-12-04T17:38:08.919Z,998.4
2022-12-04T17:41:14.274Z,998.4
2022-12-04T17:43:42.458Z,998.3
2022-12-04T17:46:10.797Z,998.3
2022-12-04T17:48:39.002Z,998.3
2022-12-04T17:51:07.256Z,998.3
2022-12-04T17:54:12.571Z,998.4
2022-12-04T17:56:44.665Z,998.4
2022-12-04T17:59:08.997Z,998.4
2022-12-04T18:02:14.334Z,998.4
2022-12-04T18:04:42.606Z,998.4
2022-12-04T18:07:02.599Z,998.4
2022-12-04T18:10:07.923Z,998.5
2022-12-04T18:13:13.282Z,998.6
2022-12-04T18:15:41.504Z,998.6
2022-12-04T18:18:09.721Z,998.7
2022-12-04T18:21:15.043Z,998.8
2022-12-04T18:23:43.300Z,998.8
2022-12-04T18:26:11.557Z,998.8
2022-12-04T18:28:39.796Z,998.8
2022-12-04T18:31:08.015Z,998.8
2022-12-04T18:34:13.352Z,998.9
2022-12-04T18:36:41.612Z,998.9
2022-12-04T18:39:09.831Z,998.9
2022-12-04T18:42:15.166Z,998.9
2022-12-04T18:44:43.408Z,998.9
2022-12-04T18:47:11.704Z,998.9
2022-12-04T18:50:16.952Z,998.9
2022-12-04T18:52:45.187Z,998.9
2022-12-04T18:55:13.452Z,998.9
2022-12-04T18:57:41.709Z,998.9
2022-12-04T19:00:10.003Z,998.9
2022-12-04T19:03:15.261Z,998.9
2022-12-04T19:05:43.633Z,998.9
2022-12-04T19:08:11.873Z,998.8
2022-12-04T19:10:40.019Z,998.8
2022-12-04T19:13:08.249Z,998.8
2022-12-04T19:16:13.654Z,998.9
2022-12-04T19:18:33.622Z,998.8
2022-12-04T19:21:01.875Z,998.9
2022-12-04T19:24:07.191Z,998.9
2022-12-04T19:27:12.626Z,998.9
2022-12-04T19:29:40.784Z,998.9
2022-12-04T19:32:09.092Z,999
2022-12-04T19:35:14.330Z,999.1
2022-12-04T19:37:44.765Z,999.1
2022-12-04T19:40:10.762Z,999.1
2022-12-04T19:43:16.082Z,999.2
2022-12-04T19:45:44.380Z,999.2
2022-12-04T19:48:12.561Z,999.2
2022-12-04T19:50:40.874Z,999.2
2022-12-04T19:53:09.087Z,999.1
2022-12-04T19:56:14.424Z,999.2
2022-12-04T19:58:42.701Z,999.2
2022-12-04T20:01:10.985Z,999.3
2022-12-04T20:03:39.204Z,999.3
2022-12-04T20:06:07.416Z,999.3
2022-12-04T20:09:12.751Z,999.3
2022-12-04T20:11:40.918Z,999.4
2022-12-04T20:14:09.194Z,999.2
2022-12-04T20:17:14.750Z,999.4
2022-12-04T20:19:42.778Z,999.3
2022-12-04T20:22:10.995Z,999.4
2022-12-04T20:25:16.320Z,999.4
2022-12-04T20:27:36.422Z,999.4
2022-12-04T20:30:04.663Z,999.4
2022-12-04T20:33:47.048Z,999.4
2022-12-04T20:36:15.220Z,999.5
2022-12-04T20:38:43.461Z,999.5
2022-12-04T20:41:11.700Z,999.5
2022-12-04T20:43:39.947Z,999.5
2022-12-04T20:46:08.258Z,999.5
2022-12-04T20:49:19.037Z,999.5
2022-12-04T20:51:41.844Z,999.5
2022-12-04T20:54:10.044Z,999.4
2022-12-04T20:57:15.316Z,999.4
2022-12-04T20:59:43.566Z,999.4
2022-12-04T21:02:11.898Z,999.4
2022-12-04T21:04:40.062Z,999.4
2022-12-04T21:07:08.331Z,999.4
2022-12-04T21:10:13.653Z,999.4
2022-12-04T21:12:43.365Z,999.4
2022-12-04T21:15:10.096Z,999.5
2022-12-04T21:18:15.388Z,999.5
2022-12-04T21:20:43.675Z,999.4
2022-12-04T21:23:11.900Z,999.5
2022-12-04T21:25:40.173Z,999.4
2022-12-04T21:28:37.298Z,999.4
2022-12-04T21:31:05.599Z,999.4
2022-12-04T21:34:10.817Z,999.4
2022-12-04T21:36:39.108Z,999.4
2022-12-04T21:39:07.307Z,999.4
2022-12-04T21:42:12.615Z,999.5
2022-12-04T21:44:40.917Z,999.5
2022-12-04T21:47:46.197Z,999.6
2022-12-04T21:50:14.437Z,999.6
2022-12-04T21:52:42.678Z,999.6
2022-12-04T21:55:10.917Z,999.6
2022-12-04T21:58:16.288Z,999.6
2022-12-04T22:00:44.498Z,999.6
2022-12-04T22:03:12.826Z,999.6
2022-12-04T22:05:40.959Z,999.6
2022-12-04T22:08:09.270Z,999.5
2022-12-04T22:11:14.529Z,999.7
2022-12-04T22:13:42.803Z,999.6
2022-12-04T22:16:11.115Z,999.7
2022-12-04T22:18:39.253Z,999.7
2022-12-04T22:21:07.515Z,999.8
2022-12-04T22:24:12.884Z,999.8
2022-12-04T22:26:41.093Z,999.8
2022-12-04T22:29:33.981Z,999.7
2022-12-04T22:32:06.475Z,999.9
2022-12-04T22:35:11.798Z,1000
2022-12-04T22:38:17.100Z,1000
2022-12-04T22:40:45.334Z,1000
2022-12-04T22:43:13.555Z,1000
2022-12-04T22:45:41.842Z,1000.1
2022-12-04T22:48:10.076Z,1000.1
2022-12-04T22:51:15.429Z,1000
2022-12-04T22:53:43.625Z,1000.1
2022-12-04T22:56:11.898Z,1000
2022-12-04T22:58:40.124Z,1000
2022-12-04T23:01:08.356Z,1000
2022-12-04T23:04:13.647Z,1000
2022-12-04T23:06:41.944Z,1000
2022-12-04T23:09:10.168Z,1000.1
2022-12-04T23:12:15.492Z,1000.1
2022-12-04T23:14:43.730Z,1000.1
2022-12-04T23:17:12.059Z,1000.1
2022-12-04T23:19:40.217Z,998.4
2022-12-04T23:22:45.576Z,1000.1
2022-12-04T23:25:13.762Z,1000.1
2022-12-04T23:30:02.402Z,1000.1
2022-12-04T23:33:07.439Z,1000.1
2022-12-04T23:36:12.720Z,1000.2
2022-12-04T23:38:40.936Z,1000.2
2022-12-04T23:41:09.237Z,1000.1
2022-12-04T23:43:37.452Z,1000.3
2022-12-04T23:46:10.540Z,1000.3
2022-12-04T23:49:11.021Z,1000.3
2022-12-04T23:52:16.312Z,1000.4
2022-12-04T23:54:44.536Z,1000.4
2022-12-04T23:57:12.829Z,1000.4
2022-12-04T23:59:41.034Z,1000.4
